Flight Track Log - Related Links

Times and Time Zones

All times are in EDT time to prevent confusion due to time zone crossing. See the SWA3497 flight status page for this flight to view local times or setup timezone preferences in your user account.

Time Position Orientation Groundspeed Altitude Reporting Facility
EDT Latitude Longitude Course Direction KTS MPH feet Rate Location/Type
Mon 02:13:20 PM 38.1464 -85.7172 151° Southeast 153 176 2,000  Level FAA TRACON SMA TRACON (SMA)
Mon 02:13:40 PM 38.1317 -85.7117 163° South 171 197 2,600 2,769 Climbing FAA TRACON SMA TRACON (SMA)
Mon 02:13:59 PM 38.1106 -85.7042 164° South 201 231 3,800 3,300 Climbing FAA TRACON SMA TRACON (SMA)
Mon 02:14:20 PM 38.0925 -85.6975 164° South 216 249 4,800 3,150 Climbing FAA TRACON SMA TRACON (SMA)
Mon 02:14:39 PM 38.0733 -85.6908 165° South 228 262 5,900 3,349 Climbing FAA TRACON SMA TRACON (SMA)
Mon 02:15:03 PM 38.0503 -85.6669 141° Southeast 248 285 7,200 2,609 Climbing FAA TRACON SMA TRACON (SMA)
Mon 02:15:25 PM 38.0481 -85.6356 95° East 285 328 7,900 2,700 Climbing FAA TRACON SMA TRACON (SMA)
Mon 02:15:43 PM 38.0500 -85.6028 86° East 302 348 9,000 3,257 Climbing FAA TRACON SMA TRACON (SMA)
Mon 02:16:00 PM 38.0519 -85.5689 86° East 312 359 9,800 2,167 Climbing FAA TRACON SMA TRACON (SMA)
Mon 02:16:19 PM 38.0547 -85.5322 84° East 330 380 10,300 2,700 Climbing FAA TRACON SMA TRACON (SMA)
Mon 02:16:40 PM 38.0583 -85.4844 85° East 351 404 11,600 3,600 Climbing FAA TRACON SMA TRACON (SMA)
Mon 02:16:59 PM 38.0614 -85.4461 84° East 359 413 12,700 3,150 Climbing FAA TRACON SMA TRACON (SMA)
Mon 02:17:20 PM 38.0653 -85.4067 83° East 362 417 13,700 3,366 Climbing FAA TRACON SMA TRACON (SMA)
Mon 02:17:40 PM 38.0703 -85.3567 83° East 370 426 15,000 3,692 Climbing FAA TRACON SMA TRACON (SMA)
Mon 02:17:59 PM 38.0744 -85.3158 83° East 375 432 16,100 3,000 Climbing FAA TRACON SMA TRACON (SMA)
Mon 02:18:20 PM 38.0781 -85.2753 84° East 377 434 17,000 3,000 Climbing FAA TRACON SMA TRACON (SMA)
Mon 02:18:39 PM 38.0833 -85.2231 83° East 385 443 18,100 2,700 Climbing FAA TRACON SMA TRACON (SMA)
Mon 02:19:00 PM 38.0872 -85.1800 83° East 393 452 18,800 1,773 Climbing FAA TRACON SMA TRACON (SMA)
Mon 02:19:23 PM 38.0911 -85.1361 84° East 403 464 19,400 2,093 Climbing FAA TRACON SMA TRACON (SMA)
Mon 02:19:43 PM 38.0967 -85.0792 83° East 419 482 20,300 2,757 Climbing FAA TRACON SMA TRACON (SMA)
Mon 02:20:00 PM 38.0997 -85.0331 85° East 425 489 21,100 2,595 Climbing FAA TRACON SMA TRACON (SMA)
Mon 02:20:20 PM 38.1050 -84.9858 82° East 434 499 21,900 2,550 Climbing FAA TRACON SMA TRACON (SMA)
Mon 02:20:40 PM 38.1114 -84.9261 82° East 442 509 22,800 2,550 Climbing FAA TRACON SMA TRACON (SMA)
Mon 02:21:00 PM 38.1150 -84.8783 84° East 444 511 23,600 2,308 Climbing FAA TRACON SMA TRACON (SMA)
Mon 02:21:19 PM 38.1197 -84.8297 83° East 449 517 24,300 2,250 Climbing FAA TRACON SMA TRACON (SMA)
Mon 02:21:40 PM 38.1258 -84.7681 83° East 456 525 25,100 2,250 Climbing FAA TRACON SMA TRACON (SMA)
Mon 02:21:59 PM 38.1300 -84.7181 84° East 460 529 25,800 2,100 Climbing FAA TRACON SMA TRACON (SMA)
Mon 02:22:20 PM 38.1347 -84.6675 83° East 465 535 26,500 2,195 Climbing FAA TRACON SMA TRACON (SMA)
Mon 02:22:40 PM 38.1400 -84.6047 84° East 467 537 27,300 2,154 Climbing FAA TRACON SMA TRACON (SMA)
Mon 02:22:59 PM 38.1467 -84.5533 81° East 473 544 27,900 1,800 Climbing FAA TRACON SMA TRACON (SMA)
Mon 02:23:20 PM 38.1508 -84.5019 84° East 475 547 28,500 1,500 Climbing FAA TRACON SMA TRACON (SMA)
Mon 02:23:39 PM 38.1542 -84.4633 84° East 477 549 28,900 1,395 Climbing FAA TRACON SMA TRACON (SMA)
Mon 02:24:46 PM 38.1681 -84.2736 85° East 488 562 30,500 1,535 Climbing Indianapolis Center
Mon 02:25:48 PM 38.1831 -84.0931 84° East 507 583 32,200 1,839 Climbing Indianapolis Center
Mon 02:26:50 PM 38.2003 -83.8833 84° East 511 588 34,300 1,805 Climbing Indianapolis Center
Mon 02:27:51 PM 38.2147 -83.7044 84° East 509 586 35,900 1,317 Climbing Indianapolis Center
Mon 02:28:53 PM 38.2281 -83.5253 85° East 508 585 37,000 532 Climbing Indianapolis Center
Mon 02:29:55 PM 38.2408 -83.3486 85° East 502 578 37,000  Level Indianapolis Center
Mon 02:30:56 PM 38.2547 -83.1719 84° East 500 575 37,000  Level Indianapolis Center
Mon 02:31:58 PM 38.2669 -82.9939 85° East 503 579 37,000  Level Indianapolis Center
Mon 02:33:00 PM 38.2800 -82.8194 85° East 496 571 37,000  Level Indianapolis Center
Mon 02:34:02 PM 38.2914 -82.6450 85° East 494 568 37,000  Level Indianapolis Center
Mon 02:35:03 PM 38.3053 -82.4469 85° East 495 570 37,000  Level Indianapolis Center
Mon 02:36:05 PM 38.3175 -82.2725 85° East 496 571 37,000  Level Indianapolis Center
Mon 02:37:07 PM 38.3292 -82.0978 85° East 496 571 37,000  Level Indianapolis Center
Mon 02:38:09 PM 38.3400 -81.9217 85° East 499 574 37,000  Level Indianapolis Center
Mon 02:39:10 PM 38.3497 -81.7458 86° East 502 578 37,000  Level Indianapolis Center
Mon 02:40:12 PM 38.3419 -81.5347 93° East 502 578 37,000  Level Indianapolis Center
Mon 02:41:14 PM 38.3369 -81.3589 92° East 503 579 37,000  Level Indianapolis Center
Mon 02:42:15 PM 38.3306 -81.1833 93° East 501 577 37,000  Level Indianapolis Center
Mon 02:43:17 PM 38.3239 -81.0081 93° East 502 578 37,000  Level Indianapolis Center
Mon 02:44:19 PM 38.3189 -80.8347 92° East 493 567 37,000  Level Indianapolis Center
Mon 02:45:21 PM 38.3117 -80.6597 93° East 495 570 37,000  Level Indianapolis Center
Mon 02:46:22 PM 38.3056 -80.4864 93° East 491 565 37,000  Level Indianapolis Center
Mon 02:47:27 PM 38.2981 -80.2933 93° East 491 565 37,000  Level Washington Center
Mon 02:48:27 PM 38.3239 -80.1069 80° East 491 565 37,000  Level Washington Center
Mon 02:49:27 PM 38.3492 -79.9364 79° East 491 565 37,000  Level Washington Center
Mon 02:50:27 PM 38.3758 -79.7683 79° East 491 565 37,000 -800 Level Washington Center
Mon 02:51:27 PM 38.4025 -79.5978 79° East 491 565 35,400 -2,000 Descending Washington Center
Mon 02:52:27 PM 38.4289 -79.4269 79° East 485 558 33,000 -2,200 Descending Washington Center
Mon 02:53:27 PM 38.4483 -79.2794 80° East 485 558 31,000 -2,000 Descending Washington Center
Mon 02:54:27 PM 38.4717 -79.1189 79° East 480 552 29,000 -1,650 Descending Washington Center
Mon 02:55:27 PM 38.4950 -78.9633 79° East 465 535 27,700 -1,150 Descending Washington Center
Mon 02:56:27 PM 38.5119 -78.8075 82° East 453 521 26,700 -1,350 Descending Washington Center
Mon 02:57:27 PM 38.5303 -78.6544 81° East 439 505 25,000 -1,900 Descending Washington Center
Mon 02:58:27 PM 38.5528 -78.5119 79° East 422 486 22,900 -2,000 Descending Washington Center
Mon 02:59:27 PM 38.5728 -78.3694 80° East 417 480 21,000 -950 Descending Washington Center
Mon 03:00:27 PM 38.5928 -78.2267 80° East 407 468 21,000  Level Washington Center
Mon 03:01:27 PM 38.6125 -78.0786 80° East 407 468 21,000 -550 Level Washington Center
Mon 03:02:27 PM 38.6300 -77.9303 81° East 412 474 19,900 -1,000 Descending Washington Center
Mon 03:03:27 PM 38.6431 -77.7897 83° East 412 474 19,000 -450 Descending Washington Center
Mon 03:04:27 PM 38.6539 -77.6494 84° East 406 467 19,000  Level Washington Center
Mon 03:04:46 PM 38.6500 -77.5833 94° East 389 448 19,000  Level Potomac TRACON
Mon 03:05:41 PM 38.6667 -77.4667 80° East 388 447 19,000 -783 Level Potomac TRACON
Mon 03:06:41 PM 38.6667 -77.3167 90° East 391 450 17,500 -1,750 Descending Potomac TRACON
Mon 03:07:41 PM 38.6833 -77.1833 81° East 385 443 15,500 -1,750 Descending Potomac TRACON
Mon 03:08:41 PM 38.6833 -77.0500 90° East 364 419 14,000 -1,650 Descending Potomac TRACON
Mon 03:09:41 PM 38.7000 -76.9333 80° East 345 397 12,200 -1,947 Descending Potomac TRACON
Mon 03:10:35 PM 38.7000 -76.8333 90° East 336 387 10,300 -1,642 Descending Potomac TRACON
Mon 03:11:27 PM 38.7119 -76.7356 81° East 328 377 9,300 -1,392 Descending Washington Center
Mon 03:13:36 PM 38.8000 -76.5333 61° Northeast 303 349 6,100 -1,206 Descending Potomac TRACON
Mon 03:14:36 PM 38.8833 -76.5500 351° North 290 334 5,500 -850 Descending Potomac TRACON
Mon 03:15:36 PM 38.9667 -76.5833 343° North 285 328 4,400 -750 Descending Potomac TRACON
Mon 03:16:36 PM 39.0000 -76.6667 297° West 275 316 4,000 -298 Descending Potomac TRACON
Mon 03:17:37 PM 39.0333 -76.7500 297° West 254 292 3,800 -397 Descending Potomac TRACON
Mon 03:18:37 PM 39.0833 -76.8000 322° Northwest 229 264 3,200 -850 Descending Potomac TRACON
Mon 03:19:37 PM 39.1500 -76.8000 360° North 213 245 2,100 -887 Descending Potomac TRACON
Mon 03:20:32 PM 39.1833 -76.7667 38° Northeast 170 196 1,500 -730 Descending Potomac TRACON
Mon 03:21:32 PM 39.1833 -76.7167 90° East 128 147 700 -800 Descending Potomac TRACON
Mon 03:23:00 PM 39.1667 -76.6667 113° Southeast  Level FlightAware Approximate
Mon 03:30:00 PM 39.1754 -76.6683 113° Southeast  Level Estimated
Mon 03:31:00 PM 39.1754 -76.6683 113° Southeast  Level Estimated
Mon 03:32:00 PM 39.1754 -76.6683 113° Southeast  Level Estimated
Mon 03:33:00 PM 39.1754 -76.6683 113° Southeast  Level Estimated

Login

Don't have an account? Register now (free) for customized features, flight alerts, and more!